sensor_id;sensor_type;location;lat;lon;timestamp;temperature;humidity
36790;DHT22;22740;52.182;8.780;2023-11-19T00:00:52;7.90;99.90
36790;DHT22;22740;52.182;8.780;2023-11-19T00:06:55;8.00;99.90
36790;DHT22;22740;52.182;8.780;2023-11-19T00:12:59;8.10;99.90
36790;DHT22;22740;52.182;8.780;2023-11-19T00:19:01;8.20;99.90
36790;DHT22;22740;52.182;8.780;2023-11-19T00:25:04;8.40;99.90
36790;DHT22;22740;52.182;8.780;2023-11-19T00:31:07;8.50;99.90
36790;DHT22;22740;52.182;8.780;2023-11-19T00:37:09;8.70;99.90
36790;DHT22;22740;52.182;8.780;2023-11-19T00:43:11;8.70;99.90
36790;DHT22;22740;52.182;8.780;2023-11-19T00:49:14;8.80;99.90
36790;DHT22;22740;52.182;8.780;2023-11-19T00:55:17;8.70;99.90
36790;DHT22;22740;52.182;8.780;2023-11-19T01:01:21;8.80;99.90
36790;DHT22;22740;52.182;8.780;2023-11-19T01:07:23;8.80;99.90
36790;DHT22;22740;52.182;8.780;2023-11-19T01:13:26;8.90;99.90
36790;DHT22;22740;52.182;8.780;2023-11-19T01:19:28;8.90;99.90
36790;DHT22;22740;52.182;8.780;2023-11-19T01:25:30;8.90;99.90
36790;DHT22;22740;52.182;8.780;2023-11-19T01:31:32;9.00;99.90
36790;DHT22;22740;52.182;8.780;2023-11-19T01:37:35;9.00;99.90
36790;DHT22;22740;52.182;8.780;2023-11-19T01:43:39;9.10;99.90
36790;DHT22;22740;52.182;8.780;2023-11-19T01:49:43;9.30;99.90
36790;DHT22;22740;52.182;8.780;2023-11-19T01:55:46;9.40;99.90
36790;DHT22;22740;52.182;8.780;2023-11-19T02:01:49;9.50;99.90
36790;DHT22;22740;52.182;8.780;2023-11-19T02:08:02;9.70;99.90
36790;DHT22;22740;52.182;8.780;2023-11-19T02:14:05;9.70;99.90
36790;DHT22;22740;52.182;8.780;2023-11-19T02:20:08;9.70;99.90
36790;DHT22;22740;52.182;8.780;2023-11-19T02:26:32;9.80;99.90
36790;DHT22;22740;52.182;8.780;2023-11-19T02:32:38;9.80;99.90
36790;DHT22;22740;52.182;8.780;2023-11-19T02:38:42;9.90;99.90
36790;DHT22;22740;52.182;8.780;2023-11-19T02:44:45;9.90;99.90
36790;DHT22;22740;52.182;8.780;2023-11-19T02:50:47;9.90;99.90
36790;DHT22;22740;52.182;8.780;2023-11-19T02:56:49;10.00;99.90
36790;DHT22;22740;52.182;8.780;2023-11-19T03:02:57;10.10;99.90
36790;DHT22;22740;52.182;8.780;2023-11-19T03:09:12;10.10;99.90
36790;DHT22;22740;52.182;8.780;2023-11-19T03:15:14;10.20;99.90
36790;DHT22;22740;52.182;8.780;2023-11-19T03:21:17;10.30;99.90
36790;DHT22;22740;52.182;8.780;2023-11-19T03:27:19;10.40;99.90
36790;DHT22;22740;52.182;8.780;2023-11-19T03:33:21;10.40;99.90
36790;DHT22;22740;52.182;8.780;2023-11-19T03:39:23;10.50;99.90
36790;DHT22;22740;52.182;8.780;2023-11-19T03:45:26;10.60;99.90
36790;DHT22;22740;52.182;8.780;2023-11-19T03:51:28;10.60;99.90
36790;DHT22;22740;52.182;8.780;2023-11-19T03:57:31;10.70;99.90
36790;DHT22;22740;52.182;8.780;2023-11-19T04:03:33;10.70;99.90
36790;DHT22;22740;52.182;8.780;2023-11-19T04:09:35;10.70;99.90
36790;DHT22;22740;52.182;8.780;2023-11-19T04:15:39;10.80;99.90
36790;DHT22;22740;52.182;8.780;2023-11-19T04:21:41;10.80;99.90
36790;DHT22;22740;52.182;8.780;2023-11-19T04:27:45;10.90;99.90
36790;DHT22;22740;52.182;8.780;2023-11-19T04:33:49;11.00;99.90
36790;DHT22;22740;52.182;8.780;2023-11-19T04:39:51;11.00;99.90
36790;DHT22;22740;52.182;8.780;2023-11-19T04:45:53;11.10;99.90
36790;DHT22;22740;52.182;8.780;2023-11-19T04:51:55;11.00;99.90
36790;DHT22;22740;52.182;8.780;2023-11-19T04:57:58;11.10;99.90
36790;DHT22;22740;52.182;8.780;2023-11-19T05:04:01;11.10;99.90
36790;DHT22;22740;52.182;8.780;2023-11-19T05:10:07;11.20;99.90
36790;DHT22;22740;52.182;8.780;2023-11-19T05:16:11;11.10;99.90
36790;DHT22;22740;52.182;8.780;2023-11-19T05:22:16;11.20;99.90
36790;DHT22;22740;52.182;8.780;2023-11-19T05:28:18;11.20;99.90
36790;DHT22;22740;52.182;8.780;2023-11-19T05:34:21;11.10;99.90
36790;DHT22;22740;52.182;8.780;2023-11-19T05:40:23;11.30;99.90
36790;DHT22;22740;52.182;8.780;2023-11-19T05:46:25;11.30;99.90
36790;DHT22;22740;52.182;8.780;2023-11-19T05:52:29;11.40;99.90
36790;DHT22;22740;52.182;8.780;2023-11-19T05:58:35;11.40;99.90
36790;DHT22;22740;52.182;8.780;2023-11-19T06:04:37;11.50;99.90
36790;DHT22;22740;52.182;8.780;2023-11-19T06:10:40;11.40;99.90
36790;DHT22;22740;52.182;8.780;2023-11-19T06:16:42;11.40;99.90
36790;DHT22;22740;52.182;8.780;2023-11-19T06:22:45;11.40;99.90
36790;DHT22;22740;52.182;8.780;2023-11-19T06:28:48;11.40;99.90
36790;DHT22;22740;52.182;8.780;2023-11-19T06:34:50;11.40;99.90
36790;DHT22;22740;52.182;8.780;2023-11-19T06:40:52;11.30;99.90
36790;DHT22;22740;52.182;8.780;2023-11-19T06:46:55;11.10;99.90
36790;DHT22;22740;52.182;8.780;2023-11-19T06:52:58;11.00;99.90
36790;DHT22;22740;52.182;8.780;2023-11-19T06:59:03;11.00;99.90
36790;DHT22;22740;52.182;8.780;2023-11-19T07:05:06;11.10;99.90
36790;DHT22;22740;52.182;8.780;2023-11-19T07:11:10;11.30;99.90
36790;DHT22;22740;52.182;8.780;2023-11-19T07:17:13;11.20;99.90
36790;DHT22;22740;52.182;8.780;2023-11-19T07:23:15;11.30;99.90
36790;DHT22;22740;52.182;8.780;2023-11-19T07:29:21;11.20;99.90
36790;DHT22;22740;52.182;8.780;2023-11-19T07:35:26;11.20;99.90
36790;DHT22;22740;52.182;8.780;2023-11-19T07:41:28;11.10;99.90
36790;DHT22;22740;52.182;8.780;2023-11-19T07:47:30;11.20;99.90
36790;DHT22;22740;52.182;8.780;2023-11-19T07:53:33;11.20;99.90
36790;DHT22;22740;52.182;8.780;2023-11-19T07:59:35;11.20;99.90
36790;DHT22;22740;52.182;8.780;2023-11-19T08:05:38;11.10;99.90
36790;DHT22;22740;52.182;8.780;2023-11-19T08:11:43;11.20;99.90
36790;DHT22;22740;52.182;8.780;2023-11-19T08:17:45;11.20;99.90
36790;DHT22;22740;52.182;8.780;2023-11-19T08:23:49;11.20;99.90
36790;DHT22;22740;52.182;8.780;2023-11-19T08:29:54;11.30;99.90
36790;DHT22;22740;52.182;8.780;2023-11-19T08:35:59;11.30;99.90
36790;DHT22;22740;52.182;8.780;2023-11-19T08:42:02;11.20;99.90
36790;DHT22;22740;52.182;8.780;2023-11-19T08:48:05;11.20;99.90
36790;DHT22;22740;52.182;8.780;2023-11-19T08:54:07;11.20;99.90
36790;DHT22;22740;52.182;8.780;2023-11-19T09:00:10;11.20;99.90
36790;DHT22;22740;52.182;8.780;2023-11-19T09:06:13;11.20;99.90
36790;DHT22;22740;52.182;8.780;2023-11-19T09:12:15;11.20;99.90
36790;DHT22;22740;52.182;8.780;2023-11-19T09:18:20;11.00;99.90
36790;DHT22;22740;52.182;8.780;2023-11-19T09:24:22;11.10;99.90
36790;DHT22;22740;52.182;8.780;2023-11-19T09:30:25;11.00;99.90
36790;DHT22;22740;52.182;8.780;2023-11-19T09:36:27;10.90;99.90
36790;DHT22;22740;52.182;8.780;2023-11-19T09:42:29;10.70;99.90
36790;DHT22;22740;52.182;8.780;2023-11-19T09:48:35;10.70;99.90
36790;DHT22;22740;52.182;8.780;2023-11-19T09:54:38;10.70;99.90
36790;DHT22;22740;52.182;8.780;2023-11-19T10:00:40;10.70;99.90
36790;DHT22;22740;52.182;8.780;2023-11-19T10:06:43;10.80;99.90
36790;DHT22;22740;52.182;8.780;2023-11-19T10:12:51;10.90;99.90
36790;DHT22;22740;52.182;8.780;2023-11-19T10:18:56;10.70;99.90
36790;DHT22;22740;52.182;8.780;2023-11-19T10:24:59;10.80;99.90
36790;DHT22;22740;52.182;8.780;2023-11-19T10:31:01;10.90;99.90
36790;DHT22;22740;52.182;8.780;2023-11-19T10:37:06;10.80;99.90
36790;DHT22;22740;52.182;8.780;2023-11-19T10:43:09;10.90;99.90
36790;DHT22;22740;52.182;8.780;2023-11-19T10:49:11;11.00;99.90
36790;DHT22;22740;52.182;8.780;2023-11-19T10:55:15;11.20;99.90
36790;DHT22;22740;52.182;8.780;2023-11-19T11:01:20;11.60;99.90
36790;DHT22;22740;52.182;8.780;2023-11-19T11:07:25;11.80;99.90
36790;DHT22;22740;52.182;8.780;2023-11-19T11:13:42;11.90;99.90
36790;DHT22;22740;52.182;8.780;2023-11-19T11:19:44;11.80;99.90
36790;DHT22;22740;52.182;8.780;2023-11-19T11:26:50;11.80;99.90
36790;DHT22;22740;52.182;8.780;2023-11-19T11:32:39;11.90;99.90
36790;DHT22;22740;52.182;8.780;2023-11-19T11:38:49;12.00;99.90
36790;DHT22;22740;52.182;8.780;2023-11-19T11:51:06;11.70;99.90
36790;DHT22;22740;52.182;8.780;2023-11-19T11:57:11;11.60;99.90
36790;DHT22;22740;52.182;8.780;2023-11-19T12:03:17;11.50;99.90
36790;DHT22;22740;52.182;8.780;2023-11-19T12:09:21;11.50;99.90
36790;DHT22;22740;52.182;8.780;2023-11-19T12:15:23;11.40;99.90
36790;DHT22;22740;52.182;8.780;2023-11-19T12:21:28;11.60;99.90
36790;DHT22;22740;52.182;8.780;2023-11-19T12:27:32;11.80;99.90
36790;DHT22;22740;52.182;8.780;2023-11-19T12:33:35;11.80;99.90
36790;DHT22;22740;52.182;8.780;2023-11-19T12:39:37;11.70;99.90
36790;DHT22;22740;52.182;8.780;2023-11-19T12:45:39;11.60;99.90
36790;DHT22;22740;52.182;8.780;2023-11-19T12:51:41;11.50;99.90
36790;DHT22;22740;52.182;8.780;2023-11-19T12:57:43;11.40;99.90
36790;DHT22;22740;52.182;8.780;2023-11-19T13:03:46;11.40;99.90
36790;DHT22;22740;52.182;8.780;2023-11-19T13:09:48;11.40;99.90
36790;DHT22;22740;52.182;8.780;2023-11-19T13:15:50;11.30;99.90
36790;DHT22;22740;52.182;8.780;2023-11-19T13:21:52;11.30;99.90
36790;DHT22;22740;52.182;8.780;2023-11-19T13:27:55;11.20;99.90
36790;DHT22;22740;52.182;8.780;2023-11-19T13:33:57;11.40;99.90
36790;DHT22;22740;52.182;8.780;2023-11-19T13:40:00;11.50;99.90
36790;DHT22;22740;52.182;8.780;2023-11-19T13:46:03;11.60;99.90
36790;DHT22;22740;52.182;8.780;2023-11-19T13:52:06;11.50;99.90
36790;DHT22;22740;52.182;8.780;2023-11-19T13:58:08;11.50;99.90
36790;DHT22;22740;52.182;8.780;2023-11-19T14:04:10;11.60;99.90
36790;DHT22;22740;52.182;8.780;2023-11-19T14:10:16;11.60;99.90
36790;DHT22;22740;52.182;8.780;2023-11-19T14:16:18;11.70;99.90
36790;DHT22;22740;52.182;8.780;2023-11-19T14:22:20;11.70;99.90
36790;DHT22;22740;52.182;8.780;2023-11-19T14:28:22;11.60;99.90
36790;DHT22;22740;52.182;8.780;2023-11-19T14:34:24;11.80;99.90
36790;DHT22;22740;52.182;8.780;2023-11-19T14:40:28;11.70;99.90
36790;DHT22;22740;52.182;8.780;2023-11-19T14:46:33;11.80;99.90
36790;DHT22;22740;52.182;8.780;2023-11-19T14:52:35;11.80;99.90
36790;DHT22;22740;52.182;8.780;2023-11-19T14:58:39;11.60;99.90
36790;DHT22;22740;52.182;8.780;2023-11-19T15:04:41;11.50;99.90
36790;DHT22;22740;52.182;8.780;2023-11-19T15:10:46;11.30;99.90
36790;DHT22;22740;52.182;8.780;2023-11-19T15:16:48;11.10;99.90
36790;DHT22;22740;52.182;8.780;2023-11-19T15:22:53;11.20;99.90
36790;DHT22;22740;52.182;8.780;2023-11-19T15:28:55;11.50;99.90
36790;DHT22;22740;52.182;8.780;2023-11-19T15:34:59;11.50;99.90
36790;DHT22;22740;52.182;8.780;2023-11-19T15:41:01;11.50;99.90
36790;DHT22;22740;52.182;8.780;2023-11-19T15:47:04;11.40;99.90
36790;DHT22;22740;52.182;8.780;2023-11-19T15:53:06;11.20;99.90
36790;DHT22;22740;52.182;8.780;2023-11-19T15:59:09;11.10;99.90
36790;DHT22;22740;52.182;8.780;2023-11-19T16:05:11;11.00;99.90
36790;DHT22;22740;52.182;8.780;2023-11-19T16:11:16;11.10;99.90
36790;DHT22;22740;52.182;8.780;2023-11-19T16:17:18;11.00;99.90
36790;DHT22;22740;52.182;8.780;2023-11-19T16:23:20;10.90;99.90
36790;DHT22;22740;52.182;8.780;2023-11-19T16:29:22;11.00;99.90
36790;DHT22;22740;52.182;8.780;2023-11-19T16:35:25;11.10;99.90
36790;DHT22;22740;52.182;8.780;2023-11-19T16:41:28;11.20;99.90
36790;DHT22;22740;52.182;8.780;2023-11-19T16:47:42;11.00;99.90
36790;DHT22;22740;52.182;8.780;2023-11-19T16:53:48;10.90;99.90
36790;DHT22;22740;52.182;8.780;2023-11-19T16:59:50;10.80;99.90
36790;DHT22;22740;52.182;8.780;2023-11-19T17:05:57;10.80;99.90
36790;DHT22;22740;52.182;8.780;2023-11-19T17:11:59;10.90;99.90
36790;DHT22;22740;52.182;8.780;2023-11-19T17:18:01;10.80;99.90
36790;DHT22;22740;52.182;8.780;2023-11-19T17:24:03;10.80;99.90
36790;DHT22;22740;52.182;8.780;2023-11-19T17:30:05;10.80;99.90
36790;DHT22;22740;52.182;8.780;2023-11-19T17:36:08;10.90;99.90
36790;DHT22;22740;52.182;8.780;2023-11-19T17:42:10;10.80;99.90
36790;DHT22;22740;52.182;8.780;2023-11-19T17:48:12;10.70;99.90
36790;DHT22;22740;52.182;8.780;2023-11-19T17:54:14;10.60;99.90
36790;DHT22;22740;52.182;8.780;2023-11-19T18:00:17;10.70;99.90
36790;DHT22;22740;52.182;8.780;2023-11-19T18:06:19;10.80;99.90
36790;DHT22;22740;52.182;8.780;2023-11-19T18:12:22;10.90;99.90
36790;DHT22;22740;52.182;8.780;2023-11-19T18:18:24;10.80;99.90
36790;DHT22;22740;52.182;8.780;2023-11-19T18:24:26;10.70;99.90
36790;DHT22;22740;52.182;8.780;2023-11-19T18:30:28;10.70;99.90
36790;DHT22;22740;52.182;8.780;2023-11-19T18:36:37;10.70;99.90
36790;DHT22;22740;52.182;8.780;2023-11-19T18:42:39;10.70;99.90
36790;DHT22;22740;52.182;8.780;2023-11-19T18:48:42;10.90;99.90
36790;DHT22;22740;52.182;8.780;2023-11-19T18:54:45;10.80;99.90
36790;DHT22;22740;52.182;8.780;2023-11-19T19:00:47;10.90;99.90
36790;DHT22;22740;52.182;8.780;2023-11-19T19:06:49;10.90;99.90
36790;DHT22;22740;52.182;8.780;2023-11-19T19:12:51;10.70;99.90
36790;DHT22;22740;52.182;8.780;2023-11-19T19:18:53;10.60;99.90
36790;DHT22;22740;52.182;8.780;2023-11-19T19:24:58;10.60;99.90
36790;DHT22;22740;52.182;8.780;2023-11-19T19:31:00;10.60;99.90
36790;DHT22;22740;52.182;8.780;2023-11-19T19:37:02;10.50;99.90
36790;DHT22;22740;52.182;8.780;2023-11-19T19:43:05;10.50;99.90
36790;DHT22;22740;52.182;8.780;2023-11-19T19:49:08;10.40;99.90
36790;DHT22;22740;52.182;8.780;2023-11-19T19:55:10;10.40;99.90
36790;DHT22;22740;52.182;8.780;2023-11-19T20:01:13;10.40;99.90
36790;DHT22;22740;52.182;8.780;2023-11-19T20:07:16;10.40;99.90
36790;DHT22;22740;52.182;8.780;2023-11-19T20:13:21;10.30;99.90
36790;DHT22;22740;52.182;8.780;2023-11-19T20:19:24;10.20;99.90
36790;DHT22;22740;52.182;8.780;2023-11-19T20:25:26;10.10;99.90
36790;DHT22;22740;52.182;8.780;2023-11-19T20:31:28;10.20;99.90
36790;DHT22;22740;52.182;8.780;2023-11-19T20:37:31;10.10;99.90
36790;DHT22;22740;52.182;8.780;2023-11-19T20:43:33;10.10;99.90
36790;DHT22;22740;52.182;8.780;2023-11-19T20:49:36;10.00;99.90
36790;DHT22;22740;52.182;8.780;2023-11-19T20:55:38;10.00;99.90
36790;DHT22;22740;52.182;8.780;2023-11-19T21:01:41;10.00;99.90
36790;DHT22;22740;52.182;8.780;2023-11-19T21:07:43;10.10;99.90
36790;DHT22;22740;52.182;8.780;2023-11-19T21:13:45;10.10;99.90
36790;DHT22;22740;52.182;8.780;2023-11-19T21:19:49;10.00;99.90
36790;DHT22;22740;52.182;8.780;2023-11-19T21:25:52;10.00;99.90
36790;DHT22;22740;52.182;8.780;2023-11-19T21:31:54;10.10;99.90
36790;DHT22;22740;52.182;8.780;2023-11-19T21:37:56;10.00;99.90
36790;DHT22;22740;52.182;8.780;2023-11-19T21:43:58;10.00;99.90
36790;DHT22;22740;52.182;8.780;2023-11-19T21:50:02;10.10;99.90
36790;DHT22;22740;52.182;8.780;2023-11-19T21:56:08;10.00;99.90
36790;DHT22;22740;52.182;8.780;2023-11-19T22:02:13;10.00;99.90
36790;DHT22;22740;52.182;8.780;2023-11-19T22:08:16;10.00;99.90
36790;DHT22;22740;52.182;8.780;2023-11-19T22:14:19;10.10;99.90
36790;DHT22;22740;52.182;8.780;2023-11-19T22:20:23;10.10;99.90
36790;DHT22;22740;52.182;8.780;2023-11-19T22:26:26;10.20;99.90
36790;DHT22;22740;52.182;8.780;2023-11-19T22:32:29;10.10;99.90
36790;DHT22;22740;52.182;8.780;2023-11-19T22:38:34;10.10;99.90
36790;DHT22;22740;52.182;8.780;2023-11-19T22:44:37;10.20;99.90
36790;DHT22;22740;52.182;8.780;2023-11-19T22:50:39;10.20;99.90
36790;DHT22;22740;52.182;8.780;2023-11-19T22:56:41;10.20;99.90
36790;DHT22;22740;52.182;8.780;2023-11-19T23:02:44;10.20;99.90
36790;DHT22;22740;52.182;8.780;2023-11-19T23:08:46;10.20;99.90
36790;DHT22;22740;52.182;8.780;2023-11-19T23:14:48;10.20;99.90
36790;DHT22;22740;52.182;8.780;2023-11-19T23:20:50;10.20;99.90
36790;DHT22;22740;52.182;8.780;2023-11-19T23:26:52;10.30;99.90
36790;DHT22;22740;52.182;8.780;2023-11-19T23:32:54;10.30;99.90
36790;DHT22;22740;52.182;8.780;2023-11-19T23:38:56;10.40;99.90
36790;DHT22;22740;52.182;8.780;2023-11-19T23:44:58;10.50;99.90
36790;DHT22;22740;52.182;8.780;2023-11-19T23:51:01;10.50;99.90
36790;DHT22;22740;52.182;8.780;2023-11-19T23:57:05;10.50;99.90
